This is the latest recevied weather packets stored in our database for station/object SP2MHC-2. If no packets are shown the sender has not sent any weather packets the latest 10 day(s).
| Time | Temp. | Humidity | Pressure | Rain* | Wind** | Luminosity | Snow |
|---|---|---|---|---|---|---|---|
| 1777580341 | 5.56° C | 57% | 1024.2 hPa | - | - | - | - |
| 1777580339 | 5.56° C | 57% | 1024.2 hPa | - | - | - | - |
| 1777579440 | 5° C | 58% | 1024.2 hPa | - | - | - | - |
| 1777579439 | 5° C | 58% | 1024.2 hPa | - | - | - | - |
| 1777578541 | 6.11° C | 55% | 1024.2 hPa | - | - | - | - |
| 1777578539 | 6.11° C | 55% | 1024.2 hPa | - | - | - | - |
| 1777577679 | 6.67° C | 54% | 1024.2 hPa | - | - | - | - |
| 1777577642 | 6.67° C | 54% | 1024.2 hPa | - | - | - | - |
| 1777577639 | 6.67° C | 54% | 1024.2 hPa | - | - | - | - |
| 1777576741 | 6.67° C | 54% | 1024.2 hPa | - | - | - | - |
| 1777576739 | 6.67° C | 54% | 1024.2 hPa | - | - | - | - |
| 1777575841 | 7.22° C | 52% | 1024.2 hPa | - | - | - | - |
| 1777575839 | 7.22° C | 52% | 1024.2 hPa | - | - | - | - |
| 1777574941 | 8.33° C | 51% | 1024.2 hPa | - | - | - | - |
| 1777574938 | 8.33° C | 51% | 1024.2 hPa | - | - | - | - |
| 1777574043 | 9.44° C | 50% | 1024.1 hPa | - | - | - | - |
| 1777574038 | 9.44° C | 50% | 1024.1 hPa | - | - | - | - |
| 1777573140 | 10° C | 47% | 1024.1 hPa | - | - | - | - |
| 1777573138 | 10° C | 47% | 1024.1 hPa | - | - | - | - |
| 1777572241 | 11.11° C | 42% | 1023.8 hPa | - | - | - | - |
| 1777572238 | 11.11° C | 42% | 1023.8 hPa | - | - | - | - |
| 1777571341 | 12.22° C | 36% | 1023.6 hPa | - | - | - | - |
| 1777571338 | 12.22° C | 36% | 1023.6 hPa | - | - | - | - |
| 1777570473 | 13.33° C | 32% | 1023.4 hPa | - | - | - | - |
| 1777570441 | 13.33° C | 32% | 1023.4 hPa | - | - | - | - |
* Rain since midnight (hover to see other rain measurements)
** Current wind speed in m/s (hover to see current wind gust speed)